createdAt,value
2022-10-13T00:00:56.549Z,101469.31
2022-10-13T00:03:23.355Z,101474.16
2022-10-13T00:05:51.185Z,101469.69
2022-10-13T00:08:20.279Z,101468.00
2022-10-13T00:10:49.348Z,101462.50
2022-10-13T00:13:16.352Z,101466.94
2022-10-13T00:15:45.268Z,101464.59
2022-10-13T00:18:12.202Z,101463.72
2022-10-13T00:20:48.324Z,101458.03
2022-10-13T00:23:15.471Z,101456.31
2022-10-13T00:25:48.914Z,101468.88
2022-10-13T00:28:17.511Z,101457.88
2022-10-13T00:30:43.945Z,101457.41
2022-10-13T00:33:11.533Z,101465.44
2022-10-13T00:35:46.447Z,101451.03
2022-10-13T00:38:13.355Z,101454.66
2022-10-13T00:40:48.809Z,101456.16
2022-10-13T00:43:21.115Z,101456.59
2022-10-13T00:45:50.654Z,101445.59
2022-10-13T00:48:20.929Z,101448.81
2022-10-13T00:50:48.476Z,101452.41
2022-10-13T00:53:16.684Z,101446.66
2022-10-13T00:55:44.338Z,101454.91
2022-10-13T00:58:16.059Z,101450.44
2022-10-13T01:00:48.223Z,101449.78
2022-10-13T01:03:15.038Z,101455.69
2022-10-13T01:05:42.220Z,101447.44
2022-10-13T01:10:57.990Z,101457.41
2022-10-13T01:13:31.079Z,101448.06
2022-10-13T01:16:06.717Z,101443.66
2022-10-13T01:18:52.411Z,101449.34
2022-10-13T01:21:28.828Z,101436.16
2022-10-13T01:24:26.569Z,101432.75
2022-10-13T01:27:05.093Z,101425.56
2022-10-13T01:30:09.405Z,101421.31
2022-10-13T01:33:00.006Z,101418.75
2022-10-13T01:35:44.313Z,101413.25
2022-10-13T01:38:16.533Z,101418.56
2022-10-13T01:40:51.211Z,101401.84
2022-10-13T01:43:24.249Z,101403.56
2022-10-13T01:46:03.690Z,101401.44
2022-10-13T01:48:31.117Z,101401.91
2022-10-13T01:50:59.750Z,101405.31
2022-10-13T01:53:27.293Z,101396.91
2022-10-13T01:55:57.269Z,101392.22
2022-10-13T01:58:25.933Z,101393.75
2022-10-13T02:01:11.319Z,101395.63
2022-10-13T02:04:07.629Z,101389.47
2022-10-13T02:06:50.180Z,101390.31
2022-10-13T02:09:31.969Z,101381.22
2022-10-13T02:12:16.823Z,101392.22
2022-10-13T02:14:46.817Z,101386.06
2022-10-13T02:17:14.329Z,101387.97
2022-10-13T02:19:40.813Z,101384.38
2022-10-13T02:22:10.984Z,101385.91
2022-10-13T02:24:37.579Z,101377.81
2022-10-13T02:27:06.591Z,101374.88
2022-10-13T02:29:33.131Z,101361.13
2022-10-13T02:31:59.631Z,101362.19
2022-10-13T02:34:26.253Z,101364.72
2022-10-13T02:36:52.645Z,101363.03
2022-10-13T02:39:19.009Z,101363.88
2022-10-13T02:41:45.381Z,101363.88
2022-10-13T02:44:11.808Z,101369.00
2022-10-13T02:46:38.177Z,101368.59
2022-10-13T02:49:04.592Z,101360.97
2022-10-13T02:51:32.451Z,101367.78
2022-10-13T02:54:00.472Z,101365.72
2022-10-13T02:56:26.852Z,101364.44
2022-10-13T02:58:53.625Z,101367.84
2022-10-13T03:01:20.032Z,101367.66
2022-10-13T03:03:46.408Z,101369.38
2022-10-13T03:06:12.894Z,101372.13
2022-10-13T03:08:39.275Z,101372.13
2022-10-13T03:11:05.762Z,101375.28
2022-10-13T03:13:32.195Z,101373.34
2022-10-13T03:15:58.645Z,101378.22
2022-10-13T03:18:25.898Z,101372.88
2022-10-13T03:21:00.368Z,101371.38
2022-10-13T03:23:27.198Z,101375.19
2022-10-13T03:25:54.098Z,101377.13
2022-10-13T03:28:21.455Z,101379.88
2022-10-13T03:30:48.199Z,101386.41
2022-10-13T03:33:14.726Z,101384.50
2022-10-13T03:35:41.166Z,101378.78
2022-10-13T03:38:08.112Z,101380.50
2022-10-13T03:40:36.365Z,101385.16
2022-10-13T03:43:02.728Z,101383.44
2022-10-13T03:45:31.280Z,101377.75
2022-10-13T03:47:58.184Z,101381.34
2022-10-13T03:50:24.549Z,101381.34
2022-10-13T03:52:50.907Z,101367.38
2022-10-13T03:55:17.346Z,101367.00
2022-10-13T03:57:43.703Z,101364.91
2022-10-13T04:00:10.854Z,101361.09
2022-10-13T04:02:37.258Z,101355.59
2022-10-13T04:05:03.827Z,101349.88
2022-10-13T04:07:30.369Z,101342.50
2022-10-13T04:09:56.731Z,101336.63
2022-10-13T04:12:23.469Z,101321.81
2022-10-13T04:14:50.309Z,101325.59
2022-10-13T04:17:16.688Z,101328.16
2022-10-13T04:19:43.144Z,101325.22
2022-10-13T04:22:09.542Z,101322.47
2022-10-13T04:24:35.985Z,101318.47
2022-10-13T04:27:02.418Z,101323.13
2022-10-13T04:29:28.868Z,101320.19
2022-10-13T04:31:55.467Z,101321.84
2022-10-13T04:34:21.877Z,101318.06
2022-10-13T04:36:50.561Z,101311.28
2022-10-13T04:39:18.131Z,101314.72
2022-10-13T04:41:44.520Z,101311.56
2022-10-13T04:44:11.156Z,101310.50
2022-10-13T04:46:37.592Z,101317.72
2022-10-13T04:49:04.745Z,101310.50
2022-10-13T04:51:31.214Z,101313.03
2022-10-13T04:53:59.234Z,101304.59
2022-10-13T04:56:25.923Z,101311.81
2022-10-13T04:58:52.351Z,101301.66
2022-10-13T05:01:22.598Z,101297.84
2022-10-13T05:03:57.803Z,101296.16
2022-10-13T05:06:27.293Z,101297.84
2022-10-13T05:08:53.806Z,101294.22
2022-10-13T05:11:20.803Z,101293.19
2022-10-13T05:13:48.424Z,101283.44
2022-10-13T05:16:16.731Z,101292.53
2022-10-13T05:18:43.270Z,101287.03
2022-10-13T05:21:22.196Z,101284.28
2022-10-13T05:23:48.820Z,101281.53
2022-10-13T05:26:18.411Z,101285.97
2022-10-13T05:28:45.568Z,101297.63
2022-10-13T05:31:20.493Z,101290.00
2022-10-13T05:33:48.395Z,101290.69
2022-10-13T05:36:18.029Z,101289.59
2022-10-13T05:38:44.834Z,101291.31
2022-10-13T05:41:13.742Z,101293.66
2022-10-13T05:43:41.675Z,101281.59
2022-10-13T05:46:08.771Z,101287.78
2022-10-13T05:48:35.615Z,101290.09
2022-10-13T05:51:05.278Z,101291.78
2022-10-13T05:53:35.730Z,101292.88
2022-10-13T05:56:08.500Z,101293.28
2022-10-13T05:58:40.392Z,101271.84
2022-10-13T06:01:13.227Z,101285.19
2022-10-13T06:03:41.972Z,101267.81
2022-10-13T06:06:09.554Z,101266.94
2022-10-13T06:08:37.331Z,101266.75
2022-10-13T06:11:05.416Z,101263.16
2022-10-13T06:13:31.836Z,101277.97
2022-10-13T06:15:58.225Z,101282.41
2022-10-13T06:18:25.030Z,101274.16
2022-10-13T06:20:51.501Z,101273.50
2022-10-13T06:23:17.912Z,101269.50
2022-10-13T06:25:49.247Z,101273.94
2022-10-13T06:28:16.445Z,101275.84
2022-10-13T06:30:46.837Z,101270.34
2022-10-13T06:33:13.805Z,101272.03
2022-10-13T06:35:40.207Z,101269.97
2022-10-13T06:38:06.602Z,101264.03
2022-10-13T06:40:32.971Z,101269.31
2022-10-13T06:42:59.339Z,101267.22
2022-10-13T06:45:25.739Z,101272.50
2022-10-13T06:47:54.222Z,101276.97
2022-10-13T06:50:22.167Z,101266.81
2022-10-13T06:52:48.647Z,101269.38
2022-10-13T06:55:15.145Z,101270.00
2022-10-13T06:57:41.540Z,101274.25
2022-10-13T07:00:08.905Z,101269.19
2022-10-13T07:02:35.358Z,101268.78
2022-10-13T07:05:01.750Z,101274.53
2022-10-13T07:07:28.203Z,101276.84
2022-10-13T07:09:54.700Z,101273.50
2022-10-13T07:12:22.487Z,101279.03
2022-10-13T07:14:49.109Z,101269.72
2022-10-13T07:17:15.544Z,101273.56
2022-10-13T07:19:41.972Z,101272.75
2022-10-13T07:22:08.433Z,101273.59
2022-10-13T07:24:34.805Z,101272.78
2022-10-13T07:27:06.757Z,101269.00
2022-10-13T07:29:34.278Z,101271.75
2022-10-13T07:32:00.716Z,101270.72
2022-10-13T07:34:27.098Z,101267.75
2022-10-13T07:36:53.530Z,101278.38
2022-10-13T07:39:19.900Z,101269.88
2022-10-13T07:41:50.777Z,101278.00
2022-10-13T07:44:17.727Z,101268.44
2022-10-13T07:46:44.199Z,101269.06
2022-10-13T07:49:13.704Z,101257.59
2022-10-13T07:51:43.282Z,101253.75
2022-10-13T07:54:10.104Z,101250.97
2022-10-13T07:56:36.580Z,101254.19
2022-10-13T07:59:05.187Z,101245.25
2022-10-13T08:01:31.751Z,101256.28
2022-10-13T08:03:59.243Z,101251.19
2022-10-13T08:06:25.742Z,101250.75
2022-10-13T08:08:52.894Z,101246.72
2022-10-13T08:11:19.309Z,101249.91
2022-10-13T08:13:50.560Z,101244.78
2022-10-13T08:16:18.106Z,101248.16
2022-10-13T08:18:45.409Z,101252.44
2022-10-13T08:24:08.896Z,101250.69
2022-10-13T08:26:35.285Z,101244.72
2022-10-13T08:29:21.880Z,101248.56
2022-10-13T08:34:19.770Z,101230.50
2022-10-13T08:36:46.313Z,101213.94
2022-10-13T08:39:13.928Z,101206.06
2022-10-13T08:41:43.965Z,101220.69
2022-10-13T08:47:37.921Z,101229.31
2022-10-13T08:50:12.491Z,101232.03
2022-10-13T08:52:47.981Z,101233.03
2022-10-13T08:55:21.657Z,101243.63
2022-10-13T08:57:48.308Z,101233.88
2022-10-13T09:00:14.913Z,101230.66
2022-10-13T09:02:43.967Z,101219.69
2022-10-13T09:05:19.760Z,101213.03
2022-10-13T09:07:46.350Z,101213.97
2022-10-13T09:10:14.536Z,101208.53
2022-10-13T09:12:41.054Z,101213.81
2022-10-13T09:15:10.335Z,101203.59
2022-10-13T09:17:39.476Z,101206.28
2022-10-13T09:20:22.741Z,101199.41
2022-10-13T09:23:14.023Z,101207.47
2022-10-13T09:25:43.178Z,101204.25
2022-10-13T09:28:16.891Z,101199.84
2022-10-13T09:30:48.521Z,101199.22
2022-10-13T09:33:23.447Z,101195.28
2022-10-13T09:35:58.582Z,101206.91
2022-10-13T09:38:26.514Z,101199.75
2022-10-13T09:41:01.639Z,101198.91
2022-10-13T09:43:37.449Z,101193.75
2022-10-13T09:46:25.451Z,101188.03
2022-10-13T09:48:58.705Z,101195.41
2022-10-13T09:51:33.988Z,101194.28
2022-10-13T09:54:00.549Z,101196.66
2022-10-13T09:56:49.140Z,101193.25
2022-10-13T09:59:33.004Z,101186.53
2022-10-13T10:02:03.853Z,101199.28
2022-10-13T10:04:37.671Z,101190.66
2022-10-13T10:07:28.822Z,101189.03
2022-10-13T10:10:01.731Z,101186.91
2022-10-13T10:12:30.728Z,101191.59
2022-10-13T10:14:57.152Z,101185.97
2022-10-13T10:17:53.822Z,101189.97
2022-10-13T10:20:41.792Z,101184.16
2022-10-13T10:23:14.075Z,101179.84
2022-10-13T10:25:58.602Z,101176.28
2022-10-13T10:29:01.741Z,101177.50
2022-10-13T10:32:02.378Z,101182.34
2022-10-13T10:34:41.614Z,101172.97
2022-10-13T10:37:21.112Z,101169.97
2022-10-13T10:40:19.974Z,101158.69
2022-10-13T10:43:31.740Z,101149.28
2022-10-13T10:45:59.934Z,101153.69
2022-10-13T10:48:37.742Z,101146.09
2022-10-13T10:51:07.613Z,101136.69
2022-10-13T10:54:00.378Z,101134.22
2022-10-13T10:56:38.824Z,101129.16
2022-10-13T10:59:23.788Z,101125.88
2022-10-13T11:02:10.886Z,101130.34
2022-10-13T11:04:48.257Z,101115.72
2022-10-13T11:07:23.423Z,101119.88
2022-10-13T11:09:52.873Z,101115.53
2022-10-13T11:12:19.497Z,101106.97
2022-10-13T11:14:54.903Z,101095.91
2022-10-13T11:17:29.457Z,101097.44
2022-10-13T11:19:57.044Z,101085.22
2022-10-13T11:22:28.487Z,101082.13
2022-10-13T11:25:33.450Z,101072.97
2022-10-13T11:28:00.135Z,101070.44
2022-10-13T11:30:57.321Z,101077.50
2022-10-13T11:33:38.717Z,101075.78
2022-10-13T11:36:33.078Z,101069.53
2022-10-13T11:39:28.352Z,101074.25
2022-10-13T11:42:55.519Z,101068.50
2022-10-13T11:45:37.354Z,101070.97
2022-10-13T11:48:16.787Z,101063.22
2022-10-13T11:50:46.276Z,101061.75
2022-10-13T11:53:26.502Z,101059.34
2022-10-13T11:55:59.637Z,101050.72
2022-10-13T11:58:42.656Z,101037.56
2022-10-13T12:01:14.470Z,101047.19
2022-10-13T12:03:46.689Z,101039.28
2022-10-13T12:06:15.875Z,101030.63
2022-10-13T12:08:47.668Z,101029.06
2022-10-13T12:11:28.841Z,101029.72
2022-10-13T12:13:56.200Z,101035.03
2022-10-13T12:16:23.031Z,101036.28
2022-10-13T12:18:49.572Z,101025.91
2022-10-13T12:21:22.564Z,101030.06
2022-10-13T12:23:50.924Z,101029.94
2022-10-13T12:26:20.652Z,101029.81
2022-10-13T12:28:54.377Z,101026.63
2022-10-13T12:31:22.616Z,101030.66
2022-10-13T12:34:01.149Z,101027.56
2022-10-13T12:36:33.578Z,101024.47
2022-10-13T12:39:07.443Z,101028.78
2022-10-13T12:41:40.637Z,101020.84
2022-10-13T12:44:17.190Z,101015.81
2022-10-13T12:46:56.107Z,101017.97
2022-10-13T12:49:25.518Z,101012.94
2022-10-13T12:51:56.146Z,101009.22
2022-10-13T12:54:26.481Z,101002.00
2022-10-13T12:56:57.424Z,101023.16
2022-10-13T12:59:25.584Z,101009.97
2022-10-13T13:01:54.185Z,101014.97
2022-10-13T13:04:23.393Z,101007.09
2022-10-13T13:07:00.862Z,101000.41
2022-10-13T13:09:29.466Z,100998.72
2022-10-13T13:12:11.338Z,100999.72
2022-10-13T13:14:48.333Z,100997.53
2022-10-13T13:17:27.704Z,100992.50
2022-10-13T13:20:19.704Z,100999.38
2022-10-13T13:22:46.170Z,101014.59
2022-10-13T13:25:12.580Z,101015.34
2022-10-13T13:27:40.121Z,101018.91
2022-10-13T13:30:13.265Z,101013.94
2022-10-13T13:32:40.436Z,101011.41
2022-10-13T13:35:07.860Z,101013.28
2022-10-13T13:37:38.758Z,101021.81
2022-10-13T13:40:06.974Z,101008.34
2022-10-13T13:42:33.580Z,101010.28
2022-10-13T13:44:59.945Z,101000.44
2022-10-13T13:47:28.397Z,101006.81
2022-10-13T13:49:56.386Z,101005.63
2022-10-13T13:52:23.916Z,101003.59
2022-10-13T13:54:51.083Z,101002.19
2022-10-13T13:57:18.280Z,100994.59
2022-10-13T13:59:45.343Z,100996.78
2022-10-13T14:02:19.020Z,100980.34
2022-10-13T14:04:45.819Z,100978.66
2022-10-13T14:07:12.881Z,100979.25
2022-10-13T14:09:39.512Z,100980.94
2022-10-13T14:12:06.059Z,100984.88
2022-10-13T14:14:33.065Z,100988.28
2022-10-13T14:17:01.275Z,100988.84
2022-10-13T14:19:27.743Z,100975.44
2022-10-13T14:21:54.168Z,100983.47
2022-10-13T14:24:20.783Z,100976.72
2022-10-13T14:26:47.333Z,100973.00
2022-10-13T14:29:14.061Z,100966.03
2022-10-13T14:31:40.801Z,100967.91
2022-10-13T14:34:07.344Z,100964.50
2022-10-13T14:36:34.493Z,100970.00
2022-10-13T14:39:01.125Z,100961.34
2022-10-13T14:41:27.749Z,100961.50
2022-10-13T14:43:55.427Z,100968.06
2022-10-13T14:46:22.762Z,100959.13
2022-10-13T14:48:49.583Z,100961.09
2022-10-13T14:51:16.480Z,100962.69
2022-10-13T14:53:45.464Z,100957.13
2022-10-13T14:56:24.098Z,100961.56
2022-10-13T14:58:52.582Z,100961.84
2022-10-13T15:01:19.104Z,100966.22
2022-10-13T15:03:46.440Z,100965.88
2022-10-13T15:06:17.792Z,100967.25
2022-10-13T15:08:45.125Z,100961.34
2022-10-13T15:11:12.326Z,100961.81
2022-10-13T15:13:39.548Z,100961.00
2022-10-13T15:16:06.852Z,100968.41
2022-10-13T15:18:36.026Z,100956.44
2022-10-13T15:21:02.798Z,100964.19
2022-10-13T15:23:29.218Z,100957.47
2022-10-13T15:26:01.172Z,100964.09
2022-10-13T15:28:30.384Z,100962.31
2022-10-13T15:30:56.879Z,100966.06
2022-10-13T15:33:23.311Z,100956.06
2022-10-13T15:35:50.978Z,100964.88
2022-10-13T15:38:19.276Z,100957.03
2022-10-13T15:40:46.072Z,100960.56
2022-10-13T15:43:12.783Z,100962.41
2022-10-13T15:45:39.584Z,100962.06
2022-10-13T15:48:07.704Z,100968.97
2022-10-13T15:50:34.753Z,100972.22
2022-10-13T15:53:01.199Z,100969.97
2022-10-13T15:55:28.638Z,100963.56
2022-10-13T15:57:55.081Z,100962.75
2022-10-13T16:00:21.562Z,100964.91
2022-10-13T16:02:51.100Z,100956.00
2022-10-13T16:05:18.834Z,100953.44
2022-10-13T16:07:45.280Z,100952.25
2022-10-13T16:10:13.445Z,100955.28
2022-10-13T16:12:43.313Z,100941.28
2022-10-13T16:15:12.323Z,100942.28
2022-10-13T16:17:38.715Z,100948.22
2022-10-13T16:20:06.396Z,100946.44
2022-10-13T16:22:32.862Z,100938.00
2022-10-13T16:24:59.321Z,100944.66
2022-10-13T16:27:25.792Z,100950.69
2022-10-13T16:29:52.197Z,100941.53
2022-10-13T16:32:18.964Z,100946.22
2022-10-13T16:34:47.901Z,100942.00
2022-10-13T16:37:14.292Z,100946.94
2022-10-13T16:39:43.796Z,100951.06
2022-10-13T16:42:11.876Z,100954.06
2022-10-13T16:44:38.384Z,100946.00
2022-10-13T16:47:06.379Z,100946.16
2022-10-13T16:49:33.767Z,100952.78
2022-10-13T16:52:00.413Z,100954.09
2022-10-13T16:54:26.832Z,100948.78
2022-10-13T16:56:53.243Z,100950.13
2022-10-13T16:59:19.908Z,100956.50
2022-10-13T17:01:47.252Z,100958.19
2022-10-13T17:04:14.811Z,100958.19
2022-10-13T17:06:43.705Z,100962.88
2022-10-13T17:09:10.769Z,100954.56
2022-10-13T17:11:37.351Z,100962.28
2022-10-13T17:14:05.351Z,100963.38
2022-10-13T17:16:32.816Z,100967.25
2022-10-13T17:18:59.701Z,100961.94
2022-10-13T17:21:26.085Z,100952.41
2022-10-13T17:23:54.744Z,100956.75
2022-10-13T17:26:21.184Z,100948.31
2022-10-13T17:28:47.787Z,100950.97
2022-10-13T17:31:22.751Z,100957.38
2022-10-13T17:33:49.825Z,100960.88
2022-10-13T17:36:24.900Z,100959.53
2022-10-13T17:38:52.683Z,100963.88
2022-10-13T17:41:20.088Z,100966.06
2022-10-13T17:43:46.565Z,100960.50
2022-10-13T17:46:36.227Z,100970.75
2022-10-13T17:49:04.372Z,100972.94
2022-10-13T17:51:30.820Z,100966.56
2022-10-13T17:53:59.525Z,100971.00
2022-10-13T17:56:26.701Z,100973.75
2022-10-13T17:58:53.394Z,100981.84
2022-10-13T18:01:24.915Z,100979.94
2022-10-13T18:03:54.468Z,100975.72
2022-10-13T18:06:22.255Z,100977.03
2022-10-13T18:08:50.300Z,100970.41
2022-10-13T18:11:19.003Z,100979.56
2022-10-13T18:13:46.760Z,100977.03
2022-10-13T18:16:16.763Z,100970.63
2022-10-13T18:18:44.942Z,100969.81
2022-10-13T18:21:13.477Z,100967.84
2022-10-13T18:23:40.241Z,100969.19
2022-10-13T18:26:12.823Z,100970.88
2022-10-13T18:28:41.078Z,100978.13
2022-10-13T18:31:10.729Z,100977.03
2022-10-13T18:33:37.169Z,100984.50
2022-10-13T18:36:20.256Z,100979.78
2022-10-13T18:38:47.641Z,100974.25
2022-10-13T18:41:15.477Z,100978.94
2022-10-13T18:43:42.281Z,100983.69
2022-10-13T18:46:09.241Z,100975.34
2022-10-13T18:48:35.994Z,100983.28
2022-10-13T18:51:08.153Z,100980.28
2022-10-13T18:53:37.931Z,100980.28
2022-10-13T18:56:09.070Z,100981.34
2022-10-13T18:58:35.578Z,100984.38
2022-10-13T19:01:04.309Z,100986.31
2022-10-13T19:03:32.648Z,100979.06
2022-10-13T19:05:59.267Z,100987.38
2022-10-13T19:08:26.796Z,100990.16
2022-10-13T19:10:53.246Z,100977.63
2022-10-13T19:13:19.656Z,100985.09
2022-10-13T19:15:46.321Z,100988.09
2022-10-13T19:18:12.857Z,100986.44
2022-10-13T19:20:39.434Z,100992.22
2022-10-13T19:23:06.180Z,101002.72
2022-10-13T19:25:33.352Z,100993.78
2022-10-13T19:28:01.288Z,100994.63
2022-10-13T19:30:27.902Z,100998.72
2022-10-13T19:32:54.440Z,100984.84
2022-10-13T19:35:20.865Z,100995.94
2022-10-13T19:37:47.285Z,100991.25
2022-10-13T19:40:13.799Z,101001.50
2022-10-13T19:42:40.178Z,101001.50
2022-10-13T19:45:06.990Z,101001.50
2022-10-13T19:47:33.389Z,101001.72
2022-10-13T19:49:59.783Z,101002.44
2022-10-13T19:52:26.292Z,101001.63
2022-10-13T19:54:53.060Z,101003.53
2022-10-13T19:57:19.836Z,101002.91
2022-10-13T19:59:47.826Z,101015.69
2022-10-13T20:02:14.620Z,101004.59
2022-10-13T20:04:41.067Z,101006.31
2022-10-13T20:07:07.469Z,100995.22
2022-10-13T20:09:34.303Z,101002.44
2022-10-13T20:12:00.655Z,101007.16
2022-10-13T20:14:27.039Z,101003.28
2022-10-13T20:16:53.506Z,101008.81
2022-10-13T20:19:20.133Z,100998.00
2022-10-13T20:21:47.968Z,100996.06
2022-10-13T20:24:14.370Z,101002.69
2022-10-13T20:26:41.004Z,100999.06
2022-10-13T20:29:07.479Z,101006.31
2022-10-13T20:31:34.565Z,101004.59
2022-10-13T20:34:01.017Z,101010.38
2022-10-13T20:36:27.996Z,101005.69
2022-10-13T20:38:55.119Z,101016.19
2022-10-13T20:41:27.040Z,101017.03
2022-10-13T20:43:55.968Z,101020.03
2022-10-13T20:46:23.888Z,101018.31
2022-10-13T20:49:10.448Z,101021.09
2022-10-13T20:51:38.005Z,101025.19
2022-10-13T20:54:04.478Z,101022.19
2022-10-13T20:56:30.925Z,101025.19
2022-10-13T20:59:03.044Z,101023.50
2022-10-13T21:01:29.429Z,101028.44
2022-10-13T21:03:56.014Z,101018.91
2022-10-13T21:06:24.297Z,101018.91
2022-10-13T21:08:51.521Z,101021.31
2022-10-13T21:11:20.165Z,101016.00
2022-10-13T21:13:47.257Z,101018.19
2022-10-13T21:16:16.716Z,101021.16
2022-10-13T21:18:48.853Z,101019.47
2022-10-13T21:21:18.455Z,101022.50
2022-10-13T21:23:46.011Z,101018.28
2022-10-13T21:26:14.389Z,101016.59
2022-10-13T21:28:44.076Z,101020.44
2022-10-13T21:31:13.169Z,101024.28
2022-10-13T21:33:40.898Z,101020.91
2022-10-13T21:36:12.011Z,101017.75
2022-10-13T21:38:41.524Z,101021.84
2022-10-13T21:41:09.910Z,101021.84
2022-10-13T21:43:36.344Z,101022.31
2022-10-13T21:46:09.724Z,101011.22
2022-10-13T21:48:36.805Z,101018.94
2022-10-13T21:51:18.809Z,101011.69
2022-10-13T21:53:56.194Z,101017.25
2022-10-13T21:56:23.956Z,101006.16
2022-10-13T21:58:50.509Z,101009.97
2022-10-13T22:01:18.771Z,100998.88
2022-10-13T22:03:47.070Z,101005.53
2022-10-13T22:06:19.391Z,101009.97
2022-10-13T22:08:48.655Z,101006.59
2022-10-13T22:11:15.696Z,101011.06
2022-10-13T22:13:42.503Z,101008.78
2022-10-13T22:16:21.050Z,101012.63
2022-10-13T22:18:48.286Z,101010.91
2022-10-13T22:21:17.780Z,101010.91
2022-10-13T22:23:45.348Z,101005.63
2022-10-13T22:26:13.060Z,101012.00
2022-10-13T22:28:40.030Z,101008.41
2022-10-13T22:31:08.331Z,101000.91
2022-10-13T22:33:36.140Z,100996.22
2022-10-13T22:36:09.792Z,101002.88
2022-10-13T22:38:36.195Z,101000.31
2022-10-13T22:41:04.109Z,100998.03
2022-10-13T22:43:30.558Z,100989.09
2022-10-13T22:45:56.989Z,100989.09
2022-10-13T22:48:23.395Z,100991.00
2022-10-13T22:50:49.852Z,100991.00
2022-10-13T22:53:16.265Z,100990.19
2022-10-13T22:55:42.667Z,100983.81
2022-10-13T22:58:09.099Z,100985.72
2022-10-13T23:00:36.029Z,100981.25
2022-10-13T23:03:02.723Z,100980.41
2022-10-13T23:05:29.178Z,100978.75
2022-10-13T23:07:55.697Z,100980.66
2022-10-13T23:10:22.130Z,100974.28
2022-10-13T23:12:48.572Z,100979.56
2022-10-13T23:15:14.997Z,100978.50
2022-10-13T23:17:41.352Z,100976.56
2022-10-13T23:20:08.788Z,100980.19
2022-10-13T23:22:35.179Z,100966.94
2022-10-13T23:25:01.620Z,100963.94
2022-10-13T23:27:27.986Z,100967.56
2022-10-13T23:29:54.371Z,100970.06
2022-10-13T23:32:20.748Z,100970.06
2022-10-13T23:34:47.101Z,100972.84
2022-10-13T23:37:13.463Z,100973.69
2022-10-13T23:39:39.851Z,100963.72
2022-10-13T23:42:06.261Z,100970.06
2022-10-13T23:44:32.714Z,100968.16
2022-10-13T23:46:59.104Z,100969.00
2022-10-13T23:49:25.476Z,100972.63
2022-10-13T23:51:52.121Z,100967.09
2022-10-13T23:54:18.549Z,100968.78
2022-10-13T23:56:44.941Z,100963.25
2022-10-13T23:59:11.327Z,100962.13
